Sultan, Washington
Current Conditions -  °F | °C
As of 5:25 PM on Tuesday 27 Jan 2015 (Local Time) from KPAE Reporting Station
Haze Haze  
Wind Chill: 45°   Ceiling: 900
Heat Index: 47°   Visibility: 4mi
Dew Point: 45°   Wind: 5mph
Humidity: 93%   Direction: 360°N
Pressure: 30.15"   Gusts: NA
Location:  47.86°N, 121.82°W
Report Text: KPAE 280125Z 36004KT 4SM BR SCT002 OVC009 08/07 A3015 RMK AO2 T00830072
Loading
Personal Weather Stations






























Interactive Weather Map New forecast layout! Learn more

10-Day Weather Forecast

Advertisements
Track Severe Weather on mobile